sensor_id;sensor_type;location;lat;lon;timestamp;P1;durP1;ratioP1;P2;durP2;ratioP2
20173;SDS011;10246;50.620;7.232;2022-08-27T00:01:46;10.70;;;8.07;;
20173;SDS011;10246;50.620;7.232;2022-08-27T00:04:12;10.83;;;7.57;;
20173;SDS011;10246;50.620;7.232;2022-08-27T00:06:39;8.60;;;6.13;;
20173;SDS011;10246;50.620;7.232;2022-08-27T00:09:06;9.37;;;6.50;;
20173;SDS011;10246;50.620;7.232;2022-08-27T00:11:33;8.80;;;6.87;;
20173;SDS011;10246;50.620;7.232;2022-08-27T00:14:00;9.90;;;5.90;;
20173;SDS011;10246;50.620;7.232;2022-08-27T00:16:27;10.37;;;6.00;;
20173;SDS011;10246;50.620;7.232;2022-08-27T00:18:55;9.70;;;6.93;;
20173;SDS011;10246;50.620;7.232;2022-08-27T00:21:23;14.13;;;6.30;;
20173;SDS011;10246;50.620;7.232;2022-08-27T00:23:50;8.83;;;6.10;;
20173;SDS011;10246;50.620;7.232;2022-08-27T00:26:17;9.93;;;6.50;;
20173;SDS011;10246;50.620;7.232;2022-08-27T00:28:44;14.83;;;6.77;;
20173;SDS011;10246;50.620;7.232;2022-08-27T00:31:12;13.10;;;7.50;;
20173;SDS011;10246;50.620;7.232;2022-08-27T00:33:39;10.80;;;7.00;;
20173;SDS011;10246;50.620;7.232;2022-08-27T00:36:08;9.43;;;7.40;;
20173;SDS011;10246;50.620;7.232;2022-08-27T00:38:35;10.17;;;5.63;;
20173;SDS011;10246;50.620;7.232;2022-08-27T00:41:04;8.30;;;5.33;;
20173;SDS011;10246;50.620;7.232;2022-08-27T00:43:41;9.03;;;6.00;;
20173;SDS011;10246;50.620;7.232;2022-08-27T00:46:12;9.07;;;6.50;;
20173;SDS011;10246;50.620;7.232;2022-08-27T00:48:44;10.83;;;7.57;;
20173;SDS011;10246;50.620;7.232;2022-08-27T00:51:12;11.20;;;8.90;;
20173;SDS011;10246;50.620;7.232;2022-08-27T00:53:39;8.97;;;7.90;;
20173;SDS011;10246;50.620;7.232;2022-08-27T00:56:07;12.50;;;9.53;;
20173;SDS011;10246;50.620;7.232;2022-08-27T00:58:38;12.87;;;11.13;;
20173;SDS011;10246;50.620;7.232;2022-08-27T01:01:08;14.33;;;11.20;;
20173;SDS011;10246;50.620;7.232;2022-08-27T01:03:39;14.43;;;11.87;;
20173;SDS011;10246;50.620;7.232;2022-08-27T01:06:09;12.70;;;10.50;;
20173;SDS011;10246;50.620;7.232;2022-08-27T01:08:40;13.03;;;9.80;;
20173;SDS011;10246;50.620;7.232;2022-08-27T01:11:09;14.17;;;9.10;;
20173;SDS011;10246;50.620;7.232;2022-08-27T01:13:36;11.10;;;9.90;;
20173;SDS011;10246;50.620;7.232;2022-08-27T01:16:03;11.97;;;10.03;;
20173;SDS011;10246;50.620;7.232;2022-08-27T01:18:32;12.53;;;9.57;;
20173;SDS011;10246;50.620;7.232;2022-08-27T01:21:03;13.43;;;10.47;;
20173;SDS011;10246;50.620;7.232;2022-08-27T01:23:36;15.20;;;11.20;;
20173;SDS011;10246;50.620;7.232;2022-08-27T01:26:11;17.30;;;14.07;;
20173;SDS011;10246;50.620;7.232;2022-08-27T01:28:40;16.90;;;15.00;;
20173;SDS011;10246;50.620;7.232;2022-08-27T01:31:07;17.60;;;14.40;;
20173;SDS011;10246;50.620;7.232;2022-08-27T01:33:36;17.23;;;14.10;;
20173;SDS011;10246;50.620;7.232;2022-08-27T01:36:04;18.40;;;14.60;;
20173;SDS011;10246;50.620;7.232;2022-08-27T01:38:32;19.23;;;15.03;;
20173;SDS011;10246;50.620;7.232;2022-08-27T01:40:59;18.40;;;14.93;;
20173;SDS011;10246;50.620;7.232;2022-08-27T01:43:28;19.03;;;14.43;;
20173;SDS011;10246;50.620;7.232;2022-08-27T01:45:55;17.70;;;14.63;;
20173;SDS011;10246;50.620;7.232;2022-08-27T01:48:22;17.57;;;14.33;;
20173;SDS011;10246;50.620;7.232;2022-08-27T01:50:49;16.60;;;12.90;;
20173;SDS011;10246;50.620;7.232;2022-08-27T01:53:17;15.87;;;12.30;;
20173;SDS011;10246;50.620;7.232;2022-08-27T01:55:45;13.40;;;12.00;;
20173;SDS011;10246;50.620;7.232;2022-08-27T01:58:13;16.73;;;13.03;;
20173;SDS011;10246;50.620;7.232;2022-08-27T02:00:43;17.10;;;12.57;;
20173;SDS011;10246;50.620;7.232;2022-08-27T02:03:11;15.13;;;12.20;;
20173;SDS011;10246;50.620;7.232;2022-08-27T02:05:42;13.53;;;12.00;;
20173;SDS011;10246;50.620;7.232;2022-08-27T02:08:09;16.30;;;12.90;;
20173;SDS011;10246;50.620;7.232;2022-08-27T02:10:37;17.57;;;14.40;;
20173;SDS011;10246;50.620;7.232;2022-08-27T02:13:05;21.57;;;15.97;;
20173;SDS011;10246;50.620;7.232;2022-08-27T02:15:33;23.60;;;17.83;;
20173;SDS011;10246;50.620;7.232;2022-08-27T02:18:02;24.27;;;17.83;;
20173;SDS011;10246;50.620;7.232;2022-08-27T02:20:30;23.43;;;16.83;;
20173;SDS011;10246;50.620;7.232;2022-08-27T02:22:57;21.00;;;16.33;;
20173;SDS011;10246;50.620;7.232;2022-08-27T02:25:24;23.43;;;16.90;;
20173;SDS011;10246;50.620;7.232;2022-08-27T02:27:53;22.33;;;17.90;;
20173;SDS011;10246;50.620;7.232;2022-08-27T02:30:21;25.63;;;19.00;;
20173;SDS011;10246;50.620;7.232;2022-08-27T02:32:49;25.50;;;20.47;;
20173;SDS011;10246;50.620;7.232;2022-08-27T02:35:19;28.57;;;20.87;;
20173;SDS011;10246;50.620;7.232;2022-08-27T02:37:47;29.23;;;21.30;;
20173;SDS011;10246;50.620;7.232;2022-08-27T02:40:15;28.60;;;21.17;;
20173;SDS011;10246;50.620;7.232;2022-08-27T02:42:44;26.13;;;20.33;;
20173;SDS011;10246;50.620;7.232;2022-08-27T02:45:11;26.97;;;21.00;;
20173;SDS011;10246;50.620;7.232;2022-08-27T02:47:39;28.47;;;20.47;;
20173;SDS011;10246;50.620;7.232;2022-08-27T02:50:07;24.50;;;18.87;;
20173;SDS011;10246;50.620;7.232;2022-08-27T02:52:36;27.43;;;19.43;;
20173;SDS011;10246;50.620;7.232;2022-08-27T02:55:03;29.20;;;21.93;;
20173;SDS011;10246;50.620;7.232;2022-08-27T02:57:31;29.60;;;21.97;;
20173;SDS011;10246;50.620;7.232;2022-08-27T02:59:58;31.27;;;22.47;;
20173;SDS011;10246;50.620;7.232;2022-08-27T03:02:24;32.93;;;23.20;;
20173;SDS011;10246;50.620;7.232;2022-08-27T03:04:51;33.87;;;24.80;;
20173;SDS011;10246;50.620;7.232;2022-08-27T03:07:18;34.00;;;24.40;;
20173;SDS011;10246;50.620;7.232;2022-08-27T03:09:49;36.13;;;25.03;;
20173;SDS011;10246;50.620;7.232;2022-08-27T03:12:16;36.13;;;24.60;;
20173;SDS011;10246;50.620;7.232;2022-08-27T03:14:43;37.23;;;25.87;;
20173;SDS011;10246;50.620;7.232;2022-08-27T03:17:10;33.57;;;24.20;;
20173;SDS011;10246;50.620;7.232;2022-08-27T03:19:54;31.43;;;23.03;;
20173;SDS011;10246;50.620;7.232;2022-08-27T03:22:21;30.97;;;23.33;;
20173;SDS011;10246;50.620;7.232;2022-08-27T03:24:47;30.07;;;23.33;;
20173;SDS011;10246;50.620;7.232;2022-08-27T03:27:15;29.07;;;21.17;;
20173;SDS011;10246;50.620;7.232;2022-08-27T03:29:42;25.77;;;19.40;;
20173;SDS011;10246;50.620;7.232;2022-08-27T03:32:09;23.40;;;17.03;;
20173;SDS011;10246;50.620;7.232;2022-08-27T03:34:36;25.90;;;17.30;;
20173;SDS011;10246;50.620;7.232;2022-08-27T03:37:02;24.57;;;18.17;;
20173;SDS011;10246;50.620;7.232;2022-08-27T03:39:29;23.27;;;17.80;;
20173;SDS011;10246;50.620;7.232;2022-08-27T03:41:57;28.37;;;20.37;;
20173;SDS011;10246;50.620;7.232;2022-08-27T03:44:24;36.73;;;24.67;;
20173;SDS011;10246;50.620;7.232;2022-08-27T03:46:51;36.40;;;24.93;;
20173;SDS011;10246;50.620;7.232;2022-08-27T03:49:19;34.73;;;24.50;;
20173;SDS011;10246;50.620;7.232;2022-08-27T03:51:46;36.97;;;24.00;;
20173;SDS011;10246;50.620;7.232;2022-08-27T03:54:14;44.63;;;29.97;;
20173;SDS011;10246;50.620;7.232;2022-08-27T03:56:40;53.20;;;32.23;;
20173;SDS011;10246;50.620;7.232;2022-08-27T03:59:08;49.47;;;31.33;;
20173;SDS011;10246;50.620;7.232;2022-08-27T04:01:35;46.80;;;31.50;;
20173;SDS011;10246;50.620;7.232;2022-08-27T04:04:02;54.47;;;32.80;;
20173;SDS011;10246;50.620;7.232;2022-08-27T04:06:29;49.97;;;31.90;;
20173;SDS011;10246;50.620;7.232;2022-08-27T04:08:56;47.90;;;30.87;;
20173;SDS011;10246;50.620;7.232;2022-08-27T04:11:23;49.50;;;30.83;;
20173;SDS011;10246;50.620;7.232;2022-08-27T04:13:49;47.80;;;30.20;;
20173;SDS011;10246;50.620;7.232;2022-08-27T04:16:18;47.70;;;30.03;;
20173;SDS011;10246;50.620;7.232;2022-08-27T04:18:44;49.20;;;32.17;;
20173;SDS011;10246;50.620;7.232;2022-08-27T04:21:12;50.47;;;31.70;;
20173;SDS011;10246;50.620;7.232;2022-08-27T04:23:40;51.13;;;31.17;;
20173;SDS011;10246;50.620;7.232;2022-08-27T04:26:08;48.50;;;31.73;;
20173;SDS011;10246;50.620;7.232;2022-08-27T04:28:36;48.40;;;31.53;;
20173;SDS011;10246;50.620;7.232;2022-08-27T04:31:03;47.80;;;31.67;;
20173;SDS011;10246;50.620;7.232;2022-08-27T04:33:31;46.77;;;29.63;;
20173;SDS011;10246;50.620;7.232;2022-08-27T04:35:59;46.10;;;31.77;;
20173;SDS011;10246;50.620;7.232;2022-08-27T04:38:27;47.77;;;30.07;;
20173;SDS011;10246;50.620;7.232;2022-08-27T04:40:54;43.30;;;27.43;;
20173;SDS011;10246;50.620;7.232;2022-08-27T04:43:38;39.63;;;25.60;;
20173;SDS011;10246;50.620;7.232;2022-08-27T04:46:05;36.10;;;25.03;;
20173;SDS011;10246;50.620;7.232;2022-08-27T04:48:34;39.20;;;25.13;;
20173;SDS011;10246;50.620;7.232;2022-08-27T04:51:01;38.13;;;25.50;;
20173;SDS011;10246;50.620;7.232;2022-08-27T04:53:28;40.17;;;25.30;;
20173;SDS011;10246;50.620;7.232;2022-08-27T04:55:55;30.43;;;22.23;;
20173;SDS011;10246;50.620;7.232;2022-08-27T04:58:22;38.60;;;23.37;;
20173;SDS011;10246;50.620;7.232;2022-08-27T05:00:50;37.90;;;24.23;;
20173;SDS011;10246;50.620;7.232;2022-08-27T05:03:19;30.53;;;20.60;;
20173;SDS011;10246;50.620;7.232;2022-08-27T05:05:49;27.07;;;18.40;;
20173;SDS011;10246;50.620;7.232;2022-08-27T05:08:17;32.93;;;21.43;;
20173;SDS011;10246;50.620;7.232;2022-08-27T05:10:45;31.77;;;21.00;;
20173;SDS011;10246;50.620;7.232;2022-08-27T05:13:13;26.63;;;19.33;;
20173;SDS011;10246;50.620;7.232;2022-08-27T05:15:42;27.33;;;18.93;;
20173;SDS011;10246;50.620;7.232;2022-08-27T05:18:09;32.73;;;19.97;;
20173;SDS011;10246;50.620;7.232;2022-08-27T05:20:40;29.07;;;18.47;;
20173;SDS011;10246;50.620;7.232;2022-08-27T05:23:10;28.33;;;18.23;;
20173;SDS011;10246;50.620;7.232;2022-08-27T05:25:37;26.10;;;16.87;;
20173;SDS011;10246;50.620;7.232;2022-08-27T05:28:05;30.57;;;19.37;;
20173;SDS011;10246;50.620;7.232;2022-08-27T05:30:34;35.00;;;20.50;;
20173;SDS011;10246;50.620;7.232;2022-08-27T05:33:02;37.20;;;21.50;;
20173;SDS011;10246;50.620;7.232;2022-08-27T05:35:29;35.80;;;21.27;;
20173;SDS011;10246;50.620;7.232;2022-08-27T05:37:56;33.57;;;20.83;;
20173;SDS011;10246;50.620;7.232;2022-08-27T05:40:25;32.47;;;19.80;;
20173;SDS011;10246;50.620;7.232;2022-08-27T05:42:52;34.07;;;21.60;;
20173;SDS011;10246;50.620;7.232;2022-08-27T05:45:19;37.73;;;22.60;;
20173;SDS011;10246;50.620;7.232;2022-08-27T05:47:46;33.77;;;21.87;;
20173;SDS011;10246;50.620;7.232;2022-08-27T05:50:13;30.87;;;19.97;;
20173;SDS011;10246;50.620;7.232;2022-08-27T05:52:39;32.07;;;20.20;;
20173;SDS011;10246;50.620;7.232;2022-08-27T05:55:07;32.13;;;21.17;;
20173;SDS011;10246;50.620;7.232;2022-08-27T05:57:35;28.10;;;19.77;;
20173;SDS011;10246;50.620;7.232;2022-08-27T06:00:03;30.50;;;19.60;;
20173;SDS011;10246;50.620;7.232;2022-08-27T06:02:48;36.93;;;21.83;;
20173;SDS011;10246;50.620;7.232;2022-08-27T06:05:15;35.07;;;21.93;;
20173;SDS011;10246;50.620;7.232;2022-08-27T06:07:42;34.43;;;22.03;;
20173;SDS011;10246;50.620;7.232;2022-08-27T06:10:09;42.63;;;25.03;;
20173;SDS011;10246;50.620;7.232;2022-08-27T06:12:37;33.33;;;22.43;;
20173;SDS011;10246;50.620;7.232;2022-08-27T06:15:04;30.70;;;21.43;;
20173;SDS011;10246;50.620;7.232;2022-08-27T06:17:32;45.67;;;26.33;;
20173;SDS011;10246;50.620;7.232;2022-08-27T06:19:58;43.37;;;25.93;;
20173;SDS011;10246;50.620;7.232;2022-08-27T06:22:25;37.80;;;24.53;;
20173;SDS011;10246;50.620;7.232;2022-08-27T06:24:52;40.20;;;26.93;;
20173;SDS011;10246;50.620;7.232;2022-08-27T06:27:18;46.30;;;28.07;;
20173;SDS011;10246;50.620;7.232;2022-08-27T06:29:47;44.17;;;25.97;;
20173;SDS011;10246;50.620;7.232;2022-08-27T06:32:13;44.43;;;27.37;;
20173;SDS011;10246;50.620;7.232;2022-08-27T06:34:40;41.07;;;24.80;;
20173;SDS011;10246;50.620;7.232;2022-08-27T06:37:07;40.27;;;25.63;;
20173;SDS011;10246;50.620;7.232;2022-08-27T06:39:34;42.43;;;25.70;;
20173;SDS011;10246;50.620;7.232;2022-08-27T06:42:03;41.70;;;24.90;;
20173;SDS011;10246;50.620;7.232;2022-08-27T06:44:31;38.33;;;23.60;;
20173;SDS011;10246;50.620;7.232;2022-08-27T06:46:59;35.60;;;23.20;;
20173;SDS011;10246;50.620;7.232;2022-08-27T06:49:27;41.87;;;25.00;;
20173;SDS011;10246;50.620;7.232;2022-08-27T06:51:54;35.47;;;23.47;;
20173;SDS011;10246;50.620;7.232;2022-08-27T06:54:21;40.80;;;23.57;;
20173;SDS011;10246;50.620;7.232;2022-08-27T06:56:48;40.70;;;25.57;;
20173;SDS011;10246;50.620;7.232;2022-08-27T06:59:15;37.90;;;23.90;;
20173;SDS011;10246;50.620;7.232;2022-08-27T07:01:44;45.37;;;25.77;;
20173;SDS011;10246;50.620;7.232;2022-08-27T07:04:16;36.23;;;23.90;;
20173;SDS011;10246;50.620;7.232;2022-08-27T07:06:45;37.30;;;24.50;;
20173;SDS011;10246;50.620;7.232;2022-08-27T07:09:12;42.13;;;24.47;;
20173;SDS011;10246;50.620;7.232;2022-08-27T07:11:39;35.30;;;22.90;;
20173;SDS011;10246;50.620;7.232;2022-08-27T07:14:06;39.17;;;23.53;;
20173;SDS011;10246;50.620;7.232;2022-08-27T07:16:33;35.60;;;21.03;;
20173;SDS011;10246;50.620;7.232;2022-08-27T07:19:02;39.07;;;23.00;;
20173;SDS011;10246;50.620;7.232;2022-08-27T07:21:32;33.50;;;21.27;;
20173;SDS011;10246;50.620;7.232;2022-08-27T07:24:02;41.23;;;22.03;;
20173;SDS011;10246;50.620;7.232;2022-08-27T07:26:30;35.53;;;20.70;;
20173;SDS011;10246;50.620;7.232;2022-08-27T07:28:59;35.27;;;20.50;;
20173;SDS011;10246;50.620;7.232;2022-08-27T07:31:25;31.60;;;20.10;;
20173;SDS011;10246;50.620;7.232;2022-08-27T07:33:53;31.83;;;20.80;;
20173;SDS011;10246;50.620;7.232;2022-08-27T07:36:19;29.97;;;19.27;;
20173;SDS011;10246;50.620;7.232;2022-08-27T07:38:48;31.10;;;20.43;;
20173;SDS011;10246;50.620;7.232;2022-08-27T07:41:16;29.87;;;18.83;;
20173;SDS011;10246;50.620;7.232;2022-08-27T07:43:44;25.50;;;18.50;;
20173;SDS011;10246;50.620;7.232;2022-08-27T07:46:28;29.63;;;17.80;;
20173;SDS011;10246;50.620;7.232;2022-08-27T07:48:55;25.90;;;18.97;;
20173;SDS011;10246;50.620;7.232;2022-08-27T07:51:24;30.20;;;19.03;;
20173;SDS011;10246;50.620;7.232;2022-08-27T07:53:54;25.07;;;18.70;;
20173;SDS011;10246;50.620;7.232;2022-08-27T07:56:21;24.20;;;17.50;;
20173;SDS011;10246;50.620;7.232;2022-08-27T07:58:47;27.00;;;18.83;;
20173;SDS011;10246;50.620;7.232;2022-08-27T08:01:15;23.23;;;18.33;;
20173;SDS011;10246;50.620;7.232;2022-08-27T08:03:42;26.47;;;17.60;;
20173;SDS011;10246;50.620;7.232;2022-08-27T08:06:10;25.33;;;16.77;;
20173;SDS011;10246;50.620;7.232;2022-08-27T08:08:39;23.60;;;17.80;;
20173;SDS011;10246;50.620;7.232;2022-08-27T08:11:08;22.97;;;15.63;;
20173;SDS011;10246;50.620;7.232;2022-08-27T08:13:36;21.50;;;14.57;;
20173;SDS011;10246;50.620;7.232;2022-08-27T08:16:03;22.77;;;15.00;;
20173;SDS011;10246;50.620;7.232;2022-08-27T08:18:30;19.40;;;14.40;;
20173;SDS011;10246;50.620;7.232;2022-08-27T08:20:58;24.60;;;14.67;;
20173;SDS011;10246;50.620;7.232;2022-08-27T08:23:28;18.87;;;14.30;;
20173;SDS011;10246;50.620;7.232;2022-08-27T08:25:56;19.07;;;14.47;;
20173;SDS011;10246;50.620;7.232;2022-08-27T08:28:25;17.80;;;13.17;;
20173;SDS011;10246;50.620;7.232;2022-08-27T08:30:53;21.30;;;12.80;;
20173;SDS011;10246;50.620;7.232;2022-08-27T08:33:20;17.17;;;12.87;;
20173;SDS011;10246;50.620;7.232;2022-08-27T08:35:48;16.20;;;12.77;;
20173;SDS011;10246;50.620;7.232;2022-08-27T08:38:15;21.20;;;14.20;;
20173;SDS011;10246;50.620;7.232;2022-08-27T08:40:43;18.10;;;13.83;;
20173;SDS011;10246;50.620;7.232;2022-08-27T08:43:18;18.47;;;13.30;;
20173;SDS011;10246;50.620;7.232;2022-08-27T08:45:53;17.17;;;13.80;;
20173;SDS011;10246;50.620;7.232;2022-08-27T08:48:21;14.27;;;12.77;;
20173;SDS011;10246;50.620;7.232;2022-08-27T08:50:54;13.17;;;11.10;;
20173;SDS011;10246;50.620;7.232;2022-08-27T08:53:29;16.97;;;12.47;;
20173;SDS011;10246;50.620;7.232;2022-08-27T08:56:07;19.20;;;14.07;;
20173;SDS011;10246;50.620;7.232;2022-08-27T08:58:37;18.10;;;14.67;;
20173;SDS011;10246;50.620;7.232;2022-08-27T09:01:11;17.50;;;14.23;;
20173;SDS011;10246;50.620;7.232;2022-08-27T09:03:41;17.50;;;14.43;;
20173;SDS011;10246;50.620;7.232;2022-08-27T09:06:13;16.97;;;14.67;;
20173;SDS011;10246;50.620;7.232;2022-08-27T09:08:46;18.87;;;14.70;;
20173;SDS011;10246;50.620;7.232;2022-08-27T09:11:17;15.73;;;13.80;;
20173;SDS011;10246;50.620;7.232;2022-08-27T09:13:53;19.20;;;14.37;;
20173;SDS011;10246;50.620;7.232;2022-08-27T09:16:26;16.50;;;14.57;;
20173;SDS011;10246;50.620;7.232;2022-08-27T09:18:53;16.63;;;13.87;;
20173;SDS011;10246;50.620;7.232;2022-08-27T09:21:25;14.27;;;12.67;;
20173;SDS011;10246;50.620;7.232;2022-08-27T09:24:01;14.23;;;12.23;;
20173;SDS011;10246;50.620;7.232;2022-08-27T09:26:33;15.00;;;12.63;;
20173;SDS011;10246;50.620;7.232;2022-08-27T09:29:03;12.33;;;10.87;;
20173;SDS011;10246;50.620;7.232;2022-08-27T09:31:45;12.37;;;10.63;;
20173;SDS011;10246;50.620;7.232;2022-08-27T09:34:17;13.53;;;11.97;;
20173;SDS011;10246;50.620;7.232;2022-08-27T09:36:47;14.03;;;12.00;;
20173;SDS011;10246;50.620;7.232;2022-08-27T09:39:16;14.57;;;12.37;;
20173;SDS011;10246;50.620;7.232;2022-08-27T09:41:44;16.37;;;12.83;;
20173;SDS011;10246;50.620;7.232;2022-08-27T09:44:15;13.90;;;12.37;;
20173;SDS011;10246;50.620;7.232;2022-08-27T09:46:51;18.10;;;14.40;;
20173;SDS011;10246;50.620;7.232;2022-08-27T09:49:20;19.30;;;14.70;;
20173;SDS011;10246;50.620;7.232;2022-08-27T09:51:51;16.30;;;13.90;;
20173;SDS011;10246;50.620;7.232;2022-08-27T09:54:23;15.03;;;12.87;;
20173;SDS011;10246;50.620;7.232;2022-08-27T09:56:53;19.27;;;15.07;;
20173;SDS011;10246;50.620;7.232;2022-08-27T09:59:25;18.67;;;14.97;;
20173;SDS011;10246;50.620;7.232;2022-08-27T10:02:03;16.23;;;13.57;;
20173;SDS011;10246;50.620;7.232;2022-08-27T10:04:36;18.50;;;14.00;;
20173;SDS011;10246;50.620;7.232;2022-08-27T10:07:25;14.77;;;12.90;;
20173;SDS011;10246;50.620;7.232;2022-08-27T10:10:12;18.60;;;14.00;;
20173;SDS011;10246;50.620;7.232;2022-08-27T10:12:46;21.57;;;15.83;;
20173;SDS011;10246;50.620;7.232;2022-08-27T10:15:17;19.17;;;15.53;;
20173;SDS011;10246;50.620;7.232;2022-08-27T10:17:48;27.03;;;17.27;;
20173;SDS011;10246;50.620;7.232;2022-08-27T10:20:24;20.70;;;18.27;;
20173;SDS011;10246;50.620;7.232;2022-08-27T10:23:00;22.40;;;18.63;;
20173;SDS011;10246;50.620;7.232;2022-08-27T10:25:38;24.13;;;19.07;;
20173;SDS011;10246;50.620;7.232;2022-08-27T10:28:19;23.33;;;19.33;;
20173;SDS011;10246;50.620;7.232;2022-08-27T10:33:47;21.33;;;18.90;;
20173;SDS011;10246;50.620;7.232;2022-08-27T10:36:26;21.10;;;18.80;;
20173;SDS011;10246;50.620;7.232;2022-08-27T10:39:02;22.30;;;18.10;;
20173;SDS011;10246;50.620;7.232;2022-08-27T10:41:36;20.87;;;17.73;;
20173;SDS011;10246;50.620;7.232;2022-08-27T10:44:09;22.23;;;17.27;;
20173;SDS011;10246;50.620;7.232;2022-08-27T10:46:58;20.67;;;18.37;;
20173;SDS011;10246;50.620;7.232;2022-08-27T10:49:38;21.17;;;18.67;;
20173;SDS011;10246;50.620;7.232;2022-08-27T10:52:13;18.67;;;16.67;;
20173;SDS011;10246;50.620;7.232;2022-08-27T10:54:46;18.47;;;16.57;;
20173;SDS011;10246;50.620;7.232;2022-08-27T10:57:20;18.20;;;15.67;;
20173;SDS011;10246;50.620;7.232;2022-08-27T10:59:56;18.30;;;16.40;;
20173;SDS011;10246;50.620;7.232;2022-08-27T11:02:35;19.97;;;17.33;;
20173;SDS011;10246;50.620;7.232;2022-08-27T11:05:12;20.30;;;17.27;;
20173;SDS011;10246;50.620;7.232;2022-08-27T11:07:43;20.93;;;17.80;;
20173;SDS011;10246;50.620;7.232;2022-08-27T11:10:14;23.23;;;17.80;;
20173;SDS011;10246;50.620;7.232;2022-08-27T11:12:46;25.40;;;19.03;;
20173;SDS011;10246;50.620;7.232;2022-08-27T11:15:18;19.33;;;16.60;;
20173;SDS011;10246;50.620;7.232;2022-08-27T11:17:52;20.07;;;16.53;;
20173;SDS011;10246;50.620;7.232;2022-08-27T11:20:27;22.30;;;17.07;;
20173;SDS011;10246;50.620;7.232;2022-08-27T11:22:58;20.40;;;17.77;;
20173;SDS011;10246;50.620;7.232;2022-08-27T11:25:32;21.50;;;17.47;;
20173;SDS011;10246;50.620;7.232;2022-08-27T11:28:06;22.63;;;18.53;;
20173;SDS011;10246;50.620;7.232;2022-08-27T11:30:37;24.30;;;18.50;;
20173;SDS011;10246;50.620;7.232;2022-08-27T11:33:14;25.43;;;18.10;;
20173;SDS011;10246;50.620;7.232;2022-08-27T11:35:53;20.40;;;16.77;;
20173;SDS011;10246;50.620;7.232;2022-08-27T11:38:38;20.77;;;17.33;;
20173;SDS011;10246;50.620;7.232;2022-08-27T11:41:13;19.40;;;16.70;;
20173;SDS011;10246;50.620;7.232;2022-08-27T11:43:52;20.77;;;16.80;;
20173;SDS011;10246;50.620;7.232;2022-08-27T11:46:21;19.30;;;15.97;;
20173;SDS011;10246;50.620;7.232;2022-08-27T11:48:54;21.07;;;17.07;;
20173;SDS011;10246;50.620;7.232;2022-08-27T11:51:28;21.80;;;17.80;;
20173;SDS011;10246;50.620;7.232;2022-08-27T11:53:59;23.97;;;16.93;;
20173;SDS011;10246;50.620;7.232;2022-08-27T11:56:38;21.63;;;16.83;;
20173;SDS011;10246;50.620;7.232;2022-08-27T11:59:10;22.37;;;17.83;;
20173;SDS011;10246;50.620;7.232;2022-08-27T12:01:45;21.57;;;16.73;;
20173;SDS011;10246;50.620;7.232;2022-08-27T12:04:19;20.77;;;17.50;;
20173;SDS011;10246;50.620;7.232;2022-08-27T12:06:51;20.50;;;17.10;;
20173;SDS011;10246;50.620;7.232;2022-08-27T12:09:25;18.50;;;15.70;;
20173;SDS011;10246;50.620;7.232;2022-08-27T12:11:55;21.80;;;16.13;;
20173;SDS011;10246;50.620;7.232;2022-08-27T12:14:31;23.17;;;16.10;;
20173;SDS011;10246;50.620;7.232;2022-08-27T12:17:09;18.10;;;14.77;;
20173;SDS011;10246;50.620;7.232;2022-08-27T12:19:49;16.43;;;14.23;;
20173;SDS011;10246;50.620;7.232;2022-08-27T12:22:33;18.80;;;15.00;;
20173;SDS011;10246;50.620;7.232;2022-08-27T12:25:23;20.53;;;14.67;;
20173;SDS011;10246;50.620;7.232;2022-08-27T12:27:54;17.87;;;13.93;;
20173;SDS011;10246;50.620;7.232;2022-08-27T12:30:28;18.23;;;13.57;;
20173;SDS011;10246;50.620;7.232;2022-08-27T12:32:57;18.67;;;13.33;;
20173;SDS011;10246;50.620;7.232;2022-08-27T12:35:30;17.27;;;13.43;;
20173;SDS011;10246;50.620;7.232;2022-08-27T12:38:08;16.50;;;13.77;;
20173;SDS011;10246;50.620;7.232;2022-08-27T12:40:39;14.23;;;12.00;;
20173;SDS011;10246;50.620;7.232;2022-08-27T12:43:11;15.90;;;12.60;;
20173;SDS011;10246;50.620;7.232;2022-08-27T12:45:40;17.37;;;12.87;;
20173;SDS011;10246;50.620;7.232;2022-08-27T12:48:10;16.10;;;12.93;;
20173;SDS011;10246;50.620;7.232;2022-08-27T12:50:39;13.17;;;11.70;;
20173;SDS011;10246;50.620;7.232;2022-08-27T12:53:17;18.53;;;12.47;;
20173;SDS011;10246;50.620;7.232;2022-08-27T12:55:54;12.93;;;11.60;;
20173;SDS011;10246;50.620;7.232;2022-08-27T12:58:30;21.83;;;12.80;;
20173;SDS011;10246;50.620;7.232;2022-08-27T13:01:10;13.20;;;11.80;;
20173;SDS011;10246;50.620;7.232;2022-08-27T13:03:47;12.80;;;11.50;;
20173;SDS011;10246;50.620;7.232;2022-08-27T13:06:18;15.93;;;12.07;;
20173;SDS011;10246;50.620;7.232;2022-08-27T13:08:51;15.60;;;12.50;;
20173;SDS011;10246;50.620;7.232;2022-08-27T13:11:20;13.87;;;12.17;;
20173;SDS011;10246;50.620;7.232;2022-08-27T13:13:49;14.70;;;11.33;;
20173;SDS011;10246;50.620;7.232;2022-08-27T13:16:19;15.60;;;11.30;;
20173;SDS011;10246;50.620;7.232;2022-08-27T13:18:49;19.53;;;11.73;;
20173;SDS011;10246;50.620;7.232;2022-08-27T13:21:17;12.57;;;11.23;;
20173;SDS011;10246;50.620;7.232;2022-08-27T13:23:51;13.97;;;9.73;;
20173;SDS011;10246;50.620;7.232;2022-08-27T13:26:24;11.00;;;8.80;;
20173;SDS011;10246;50.620;7.232;2022-08-27T13:28:53;12.67;;;8.73;;
20173;SDS011;10246;50.620;7.232;2022-08-27T13:31:21;10.17;;;8.03;;
20173;SDS011;10246;50.620;7.232;2022-08-27T13:33:50;13.10;;;8.03;;
20173;SDS011;10246;50.620;7.232;2022-08-27T13:36:26;10.63;;;7.90;;
20173;SDS011;10246;50.620;7.232;2022-08-27T13:38:55;11.40;;;8.13;;
20173;SDS011;10246;50.620;7.232;2022-08-27T13:41:26;9.17;;;7.13;;
20173;SDS011;10246;50.620;7.232;2022-08-27T13:43:56;10.77;;;6.80;;
20173;SDS011;10246;50.620;7.232;2022-08-27T13:46:30;11.13;;;7.57;;
20173;SDS011;10246;50.620;7.232;2022-08-27T13:48:59;14.13;;;6.67;;
20173;SDS011;10246;50.620;7.232;2022-08-27T13:51:27;8.27;;;6.23;;
20173;SDS011;10246;50.620;7.232;2022-08-27T13:53:57;10.53;;;6.63;;
20173;SDS011;10246;50.620;7.232;2022-08-27T13:56:39;12.83;;;7.00;;
20173;SDS011;10246;50.620;7.232;2022-08-27T13:59:21;12.37;;;7.20;;
20173;SDS011;10246;50.620;7.232;2022-08-27T14:01:53;7.20;;;6.43;;
20173;SDS011;10246;50.620;7.232;2022-08-27T14:04:22;9.33;;;6.47;;
20173;SDS011;10246;50.620;7.232;2022-08-27T14:06:51;9.00;;;6.90;;
20173;SDS011;10246;50.620;7.232;2022-08-27T14:09:23;10.23;;;7.20;;
20173;SDS011;10246;50.620;7.232;2022-08-27T14:11:57;10.10;;;6.63;;
20173;SDS011;10246;50.620;7.232;2022-08-27T14:14:25;9.53;;;6.80;;
20173;SDS011;10246;50.620;7.232;2022-08-27T14:16:58;12.27;;;6.33;;
20173;SDS011;10246;50.620;7.232;2022-08-27T14:19:27;8.20;;;6.70;;
20173;SDS011;10246;50.620;7.232;2022-08-27T14:21:55;12.33;;;7.00;;
20173;SDS011;10246;50.620;7.232;2022-08-27T14:24:23;10.67;;;6.70;;
20173;SDS011;10246;50.620;7.232;2022-08-27T14:26:50;10.33;;;6.53;;
20173;SDS011;10246;50.620;7.232;2022-08-27T14:29:18;10.43;;;7.07;;
20173;SDS011;10246;50.620;7.232;2022-08-27T14:31:45;9.67;;;7.30;;
20173;SDS011;10246;50.620;7.232;2022-08-27T14:34:12;8.27;;;6.23;;
20173;SDS011;10246;50.620;7.232;2022-08-27T14:36:40;7.73;;;6.20;;
20173;SDS011;10246;50.620;7.232;2022-08-27T14:39:08;9.57;;;7.20;;
20173;SDS011;10246;50.620;7.232;2022-08-27T14:41:37;13.87;;;7.13;;
20173;SDS011;10246;50.620;7.232;2022-08-27T14:44:04;9.47;;;7.10;;